Terminal Aerodrome Forecast
Issued by NWS

Home | Current Version | Previous Version | Text Only | Print | Product List | Glossary Off
Versions: 1 2 3 4 5 6 7 8 9 10 11 12 13 14 15

000
FTUS43 KBIS 251729
TAFDIK
TAF
KDIK 251729Z 2518/2618 28014KT P6SM VCSH SCT030 OVC050
     FM252100 32014KT P6SM VCTS SCT020 OVC040CB
      TEMPO 2521/2601 3SM TSRA BKN015 OVC035CB
     FM260300 29012KT P6SM SCT150
     FM261200 26008KT P6SM SCT150
     FM261500 28011KT P6SM BKN100=

USA.gov is the U.S. government's official web portal to all federal, state and local government web resources and services.